Terminal Aerodrome Forecast
Issued by NWS

Home | Current Version | Previous Version | Text Only | Print | Product List | Glossary On
Versions: 1 2 3 4 5 6 7 8 9 10 11 12 13 14 15 16 17 18 19 20 21 22 23 24 25 26 27
000
FTUS42 KMFL 251503 AAA
TAFFXE
TAF AMD
KFXE 251503Z 2515/2612 09010KT P6SM VCTS SCT020CB BKN060 BKN250
      TEMPO 2515/2517 5SM TSRA BKN020CB BKN035 OVC060
     FM260000 00000KT P6SM VCSH FEW020 SCT040 BKN250=

USA.gov is the U.S. government's official web portal to all federal, state and local government web resources and services.